Time;durP1;ratioP1;P1;durP2;ratioP2;P2;SDS_P1;SDS_P2;PMS_P1;PMS_P2;Temp;Humidity;BMP_temperature;BMP_pressure;BME280_temperature;BME280_humidity;BME280_pressure;Samples;Min_cycle;Max_cycle;Signal;HPM_P1;HPM_P2
2023/02/01 00:01:47;;;;;;;2.85;1.63;;;;;;;3.38;63.55;101449.59;5510816;23;20033;-93
2023/02/01 00:04:13;;;;;;;4.63;2.67;;;;;;;3.47;63.44;101449.53;5024619;28;20096;-94
2023/02/01 00:06:39;;;;;;;1.52;1.42;;;;;;;3.46;63.76;101458.06;5017839;28;20455;-93
2023/02/01 00:09:04;;;;;;;0.98;0.90;;;;;;;3.59;63.75;101490.38;5006489;28;20032;-94
2023/02/01 00:11:30;;;;;;;0.50;0.50;;;;;;;3.60;63.67;101489.50;5007372;28;20045;-94
2023/02/01 00:13:56;;;;;;;1.05;0.75;;;;;;;3.58;63.90;101505.75;5007047;28;20033;-93
2023/02/01 00:16:24;;;;;;;1.92;1.73;;;;;;;3.27;64.34;101461.59;5007707;28;20121;-94
2023/02/01 00:18:50;;;;;;;4.07;2.42;;;;;;;3.72;63.86;101522.69;5010727;28;20112;-94
2023/02/01 00:21:18;;;;;;;3.10;1.80;;;;;;;3.38;64.02;101476.00;5008871;28;20033;-93
2023/02/01 00:23:44;;;;;;;1.95;1.67;;;;;;;3.22;64.11;101460.75;5012175;28;20108;-95
2023/02/01 00:26:17;;;;;;;4.63;3.35;;;;;;;3.25;64.09;101478.66;5007443;28;20053;-95
2023/02/01 00:28:43;;;;;;;3.50;2.10;;;;;;;3.52;64.34;101539.88;5012629;28;20069;-95
2023/02/01 00:31:08;;;;;;;4.07;1.55;;;;;;;3.30;64.34;101502.47;5025892;28;20017;-93
2023/02/01 00:33:34;;;;;;;2.53;1.60;;;;;;;3.42;64.04;101512.63;5013678;28;20060;-94
2023/02/01 00:36:02;;;;;;;1.83;1.70;;;;;;;3.07;64.40;101462.53;5009640;28;20033;-94
2023/02/01 00:38:28;;;;;;;4.38;1.80;;;;;;;3.05;64.43;101461.69;5015285;28;20109;-93
2023/02/01 00:40:54;;;;;;;3.47;1.95;;;;;;;2.95;64.67;101459.16;5025940;28;20021;-94
2023/02/01 00:43:20;;;;;;;5.05;2.08;;;;;;;2.95;64.82;101459.16;5011451;28;20025;-94
2023/02/01 00:45:46;;;;;;;1.15;0.98;;;;;;;2.88;64.70;101456.66;5013277;28;20038;-93
2023/02/01 00:48:14;;;;;;;2.80;1.67;;;;;;;2.85;65.45;101454.13;5010741;28;20071;-94
2023/02/01 00:50:43;;;;;;;1.50;1.25;;;;;;;3.30;65.02;101516.13;5007636;28;20033;-92
2023/02/01 00:53:10;;;;;;;3.50;2.30;;;;;;;2.95;65.49;101480.50;5010055;28;20033;-94
2023/02/01 00:55:35;;;;;;;1.40;1.30;;;;;;;2.77;65.67;101455.00;5010702;28;20048;-93
2023/02/01 00:58:05;;;;;;;1.30;1.10;;;;;;;2.66;65.69;101452.47;5015724;28;20033;-94
2023/02/01 01:00:36;;;;;;;2.05;1.17;;;;;;;2.76;65.68;101463.53;5017302;28;20033;-94
2023/02/01 01:03:02;;;;;;;2.50;1.50;;;;;;;2.95;65.82;101487.28;5017004;28;20038;-94
2023/02/01 01:05:30;;;;;;;4.85;2.22;;;;;;;2.73;65.61;101460.97;5031036;28;20106;-93
2023/02/01 01:07:56;;;;;;;6.68;2.08;;;;;;;2.95;65.65;101493.28;5014062;28;20033;-93
2023/02/01 01:10:22;;;;;;;2.72;1.00;;;;;;;3.11;65.86;101527.28;5012689;28;20033;-94
2023/02/01 01:12:48;;;;;;;2.13;1.42;;;;;;;2.83;65.89;101489.03;5027498;28;20044;-94
2023/02/01 01:15:13;;;;;;;2.85;1.85;;;;;;;2.74;65.79;101460.94;5028156;28;20048;-94
2023/02/01 01:17:39;;;;;;;1.45;0.98;;;;;;;2.98;65.87;101495.81;5026589;28;20034;-93
2023/02/01 01:20:05;;;;;;;2.92;2.03;;;;;;;3.07;65.67;101516.22;5013671;28;20060;-93
2023/02/01 01:22:30;;;;;;;5.55;2.75;;;;;;;2.73;65.89;101448.19;5014472;28;20030;-94
2023/02/01 01:24:56;;;;;;;4.38;2.85;;;;;;;2.84;65.44;101461.75;5015012;28;20120;-93
2023/02/01 01:27:23;;;;;;;1.30;1.05;;;;;;;2.65;65.29;101445.66;5010178;28;20034;-94
2023/02/01 01:29:49;;;;;;;2.20;1.65;;;;;;;2.75;64.82;101469.47;5016382;28;20026;-93
2023/02/01 01:32:15;;;;;;;0.70;0.70;;;;;;;2.89;64.94;101480.50;5011791;28;20040;-94
2023/02/01 01:34:41;;;;;;;3.42;1.88;;;;;;;2.92;64.84;101493.25;5012878;28;20033;-95
2023/02/01 01:37:06;;;;;;;2.38;1.55;;;;;;;2.71;64.73;101447.34;5011630;28;20119;-94
2023/02/01 01:39:32;;;;;;;5.47;2.65;;;;;;;2.94;64.76;101486.44;5013109;28;20037;-94
2023/02/01 01:41:58;;;;;;;3.75;2.38;;;;;;;2.83;64.72;101470.28;5010178;28;20036;-93
2023/02/01 01:44:56;;;;;;;1.95;1.70;;;;;;;3.14;64.74;101523.00;5011518;28;20033;-94
2023/02/01 01:47:25;;;;;;;1.20;1.13;;;;;;;2.64;64.70;101449.06;5031071;28;20026;-93
2023/02/01 01:49:53;;;;;;;0.98;0.80;;;;;;;2.72;64.44;101449.88;5013396;28;20103;-93
2023/02/01 01:52:19;;;;;;;2.90;1.17;;;;;;;2.81;64.41;101457.53;5012935;28;20092;-95
2023/02/01 01:54:46;;;;;;;1.52;1.38;;;;;;;2.80;64.54;101463.50;5015186;28;20037;-95
2023/02/01 01:57:15;;;;;;;11.00;2.25;;;;;;;2.87;64.46;101461.78;5014896;28;20127;-94
2023/02/01 01:59:40;;;;;;;1.77;1.05;;;;;;;2.94;64.44;101478.75;5009163;28;20033;-93
2023/02/01 02:02:06;;;;;;;0.60;0.60;;;;;;;2.87;64.59;101462.63;5011295;28;20127;-93
2023/02/01 02:04:32;;;;;;;2.60;1.55;;;;;;;3.22;64.39;101507.63;5013832;28;20108;-92
2023/02/01 02:07:10;;;;;;;1.52;1.42;;;;;;;3.15;64.48;101499.16;5008292;28;20583;-93
2023/02/01 02:09:35;;;;;;;3.03;0.85;;;;;;;3.39;64.49;101538.25;5005164;28;20564;-93
2023/02/01 02:12:01;;;;;;;1.80;1.35;;;;;;;3.24;64.02;101494.81;5020914;28;20061;-94
2023/02/01 02:14:26;;;;;;;15.48;2.40;;;;;;;3.27;64.04;101498.25;5020108;28;20068;-94
2023/02/01 02:17:00;;;;;;;1.65;1.33;;;;;;;3.26;64.06;101498.25;5020067;28;20036;-93
2023/02/01 02:19:47;;;;;;;1.73;1.58;;;;;;;3.64;63.66;101536.41;5024336;28;20033;-93
2023/02/01 02:22:25;;;;;;;1.58;1.48;;;;;;;3.62;64.00;101550.91;5041502;28;20041;-94
2023/02/01 02:25:29;;;;;;;1.42;1.17;;;;;;;3.59;64.30;101540.69;5041161;28;20119;-95
2023/02/01 02:28:07;;;;;;;6.55;4.35;;;;;;;3.58;64.10;101544.97;5022198;28;20056;-94
2023/02/01 02:30:51;;;;;;;2.08;1.98;;;;;;;3.58;64.25;101547.53;5043928;28;20176;-93
2023/02/01 02:33:46;;;;;;;3.28;2.67;;;;;;;3.58;63.86;101550.09;5044763;28;20040;-92
2023/02/01 02:36:30;;;;;;;3.35;2.03;;;;;;;3.59;63.95;101546.66;5046768;28;20163;-95
2023/02/01 02:39:02;;;;;;;2.85;1.30;;;;;;;3.25;64.44;101484.63;5012102;28;20082;-93
2023/02/01 02:47:37;;;;;;;2.72;1.52;;;;;;;3.39;63.98;101481.97;5004891;28;20052;-95
2023/02/01 03:04:17;;;;;;;1.42;1.25;;;;;;;3.67;64.72;101519.31;5030090;28;20562;-94
2023/02/01 03:06:45;;;;;;;3.25;1.38;;;;;;;3.61;64.67;101493.75;5009711;28;20030;-94
2023/02/01 03:09:28;;;;;;;3.78;2.03;;;;;;;3.39;64.21;101441.03;5006470;28;20026;-94
2023/02/01 03:14:41;;;;;;;4.13;2.33;;;;;;;3.62;63.98;101449.41;5020669;28;20040;-92
2023/02/01 03:17:11;;;;;;;3.80;1.80;;;;;;;3.73;64.02;101459.56;5008141;28;20033;-93
2023/02/01 03:19:47;;;;;;;7.15;2.40;;;;;;;3.71;63.67;101464.69;5007532;28;20052;-94
2023/02/01 03:22:14;;;;;;;1.23;1.13;;;;;;;3.95;63.56;101511.47;5011022;28;20029;-94
2023/02/01 03:24:45;;;;;;;0.88;0.57;;;;;;;3.47;64.04;101435.88;5007660;28;20040;-93
2023/02/01 03:27:15;;;;;;;1.40;1.00;;;;;;;3.63;63.83;101471.56;5008214;28;20030;-94
2023/02/01 03:30:01;;;;;;;2.10;1.55;;;;;;;3.55;63.90;101432.41;5028766;28;20040;-95
2023/02/01 03:32:28;;;;;;;2.70;1.90;;;;;;;3.50;63.69;101449.50;5026467;28;20022;-94
2023/02/01 03:34:53;;;;;;;1.05;0.98;;;;;;;3.67;64.00;101473.25;5009629;28;20120;-94
2023/02/01 03:37:26;;;;;;;1.25;1.15;;;;;;;3.44;63.78;101436.72;5026214;28;20034;-94
2023/02/01 03:40:00;;;;;;;1.45;1.35;;;;;;;3.62;64.06;101462.19;5007521;28;20026;-94
2023/02/01 03:42:34;;;;;;;2.78;1.80;;;;;;;3.51;63.96;101452.91;5009156;28;20029;-92
2023/02/01 03:45:13;;;;;;;2.60;1.33;;;;;;;3.92;64.32;101519.16;5005964;28;20064;-94
2023/02/01 03:47:43;;;;;;;2.92;1.40;;;;;;;3.65;64.04;101472.44;5010118;28;20060;-94
2023/02/01 03:50:19;;;;;;;7.20;0.60;;;;;;;3.65;63.62;101449.41;5007819;28;20038;-94
2023/02/01 03:52:51;;;;;;;3.05;1.88;;;;;;;3.62;64.04;101443.44;5003630;28;20044;-93
2023/02/01 03:55:20;;;;;;;2.90;2.35;;;;;;;3.78;63.94;101456.97;5020676;28;20060;-95
2023/02/01 03:57:57;;;;;;;10.07;1.40;;;;;;;3.99;63.65;101490.94;5180052;23;20188;-94
2023/02/01 04:00:24;;;;;;;4.25;2.47;;;;;;;4.06;63.62;101503.69;4994934;28;20555;-92
2023/02/01 04:02:49;;;;;;;2.63;1.30;;;;;;;3.93;64.03;101514.03;4984051;28;20100;-94
2023/02/01 04:05:15;;;;;;;1.15;1.13;;;;;;;3.92;64.42;101506.34;4996194;28;20033;-90
2023/02/01 04:07:40;;;;;;;3.83;2.15;;;;;;;3.94;64.31;101507.22;4994348;28;20030;-91
2023/02/01 04:10:06;;;;;;;0.73;0.68;;;;;;;3.88;64.53;101497.84;4978328;28;20534;-91
2023/02/01 04:12:32;;;;;;;2.90;2.65;;;;;;;3.98;64.28;101509.72;4994306;28;20025;-91
2023/02/01 04:14:58;;;;;;;4.22;1.58;;;;;;;3.92;64.22;101502.06;4994455;28;20041;-91
2023/02/01 04:17:23;;;;;;;7.18;2.25;;;;;;;3.97;64.03;101497.78;4994403;28;20490;-92
2023/02/01 04:19:49;;;;;;;1.30;1.15;;;;;;;4.03;63.88;101499.44;4978043;28;20029;-91
2023/02/01 04:22:14;;;;;;;1.05;0.90;;;;;;;3.95;64.28;101514.03;4977992;28;20413;-91
2023/02/01 04:24:40;;;;;;;3.75;1.63;;;;;;;4.10;64.26;101519.00;4978064;28;20072;-91
2023/02/01 04:27:05;;;;;;;4.07;2.17;;;;;;;4.15;63.77;101521.56;4978092;28;20489;-96
2023/02/01 04:29:30;;;;;;;15.77;2.47;;;;;;;4.21;63.89;101516.34;4978476;28;20034;-94
2023/02/01 04:31:56;;;;;;;3.00;2.33;;;;;;;4.15;63.39;101513.88;4971804;28;20026;-87
2023/02/01 04:34:23;;;;;;;3.50;1.80;;;;;;;4.24;63.80;101526.59;4960884;28;20030;-93
2023/02/01 04:36:48;;;;;;;2.22;1.80;;;;;;;4.23;63.67;101520.63;4962474;28;20034;-92
2023/02/01 04:39:14;;;;;;;1.65;1.48;;;;;;;4.29;63.51;101524.84;4961211;28;20035;-80
2023/02/01 04:41:39;;;;;;;2.15;1.67;;;;;;;4.29;63.61;101520.56;4960864;28;20105;-80
2023/02/01 04:44:05;;;;;;;4.82;1.95;;;;;;;4.34;62.93;101523.09;4976877;28;20027;-80
2023/02/01 04:46:30;;;;;;;3.95;2.10;;;;;;;4.26;63.13;101512.91;4960935;28;20406;-80
2023/02/01 04:48:56;;;;;;;4.05;2.30;;;;;;;4.42;63.28;101525.56;4977201;28;20527;-80
2023/02/01 04:51:21;;;;;;;4.45;3.13;;;;;;;4.30;63.11;101532.50;4961081;28;20034;-80
2023/02/01 04:53:47;;;;;;;1.75;1.63;;;;;;;4.32;63.38;101520.53;4961113;28;20034;-80
2023/02/01 04:56:12;;;;;;;2.33;1.83;;;;;;;4.32;62.94;101515.41;4944306;28;20038;-81
2023/02/01 04:58:38;;;;;;;2.75;1.98;;;;;;;4.30;62.74;101512.00;4976767;28;20098;-79
2023/02/01 05:01:04;;;;;;;11.35;2.72;;;;;;;4.27;62.88;101524.84;4944671;28;20026;-80
2023/02/01 05:03:31;;;;;;;1.08;0.98;;;;;;;4.30;62.67;101537.63;4944755;28;20034;-79
2023/02/01 05:05:57;;;;;;;3.33;1.98;;;;;;;4.20;63.04;101515.50;4960904;28;20116;-86
2023/02/01 05:08:22;;;;;;;8.27;1.48;;;;;;;4.34;62.67;101535.06;4977670;28;20065;-91
2023/02/01 05:10:48;;;;;;;1.00;0.95;;;;;;;4.28;62.72;101533.38;4962144;28;20041;-90
2023/02/01 05:15:58;;;;;;;6.20;4.13;;;;;;;4.28;62.87;101523.13;4998573;28;20092;-78
2023/02/01 05:18:23;;;;;;;1.77;1.42;;;;;;;4.27;62.77;101536.81;4991192;28;20030;-80
2023/02/01 05:20:48;;;;;;;4.25;2.85;;;;;;;4.28;62.90;101529.09;4976636;28;20110;-85
2023/02/01 05:23:14;;;;;;;3.58;2.17;;;;;;;4.27;63.16;101532.53;4964542;28;20018;-92
2023/02/01 05:25:39;;;;;;;0.95;0.88;;;;;;;4.22;63.13;101524.03;4973895;28;20041;-84
2023/02/01 05:28:05;;;;;;;1.50;1.20;;;;;;;4.06;63.04;101506.25;4993545;28;20034;-80
2023/02/01 05:30:32;;;;;;;2.28;1.80;;;;;;;4.21;63.44;101529.16;4959790;28;20022;-90
2023/02/01 05:32:57;;;;;;;3.30;1.83;;;;;;;3.85;63.50;101486.78;4973810;28;20034;-90
2023/02/01 05:35:23;;;;;;;2.47;1.50;;;;;;;4.12;63.64;101536.91;4974837;28;20037;-89
2023/02/01 05:37:48;;;;;;;0.90;0.90;;;;;;;4.02;63.68;101520.78;4975895;28;20037;-83
2023/02/01 05:40:14;;;;;;;4.93;2.97;;;;;;;4.15;63.92;101536.91;4990644;28;20481;-87
2023/02/01 05:42:39;;;;;;;3.40;1.45;;;;;;;4.07;63.76;101531.84;4992618;28;20114;-84
2023/02/01 05:45:07;;;;;;;3.20;1.50;;;;;;;3.90;63.70;101521.72;4976233;28;20037;-85
2023/02/01 05:47:32;;;;;;;2.53;1.92;;;;;;;4.03;63.51;101532.72;4975116;28;20026;-88
2023/02/01 05:49:58;;;;;;;3.35;1.60;;;;;;;4.09;63.29;101549.75;4990023;28;20041;-84
2023/02/01 05:52:23;;;;;;;2.97;1.30;;;;;;;4.11;63.29;101555.72;4959229;28;20049;-83
2023/02/01 05:54:49;;;;;;;2.90;1.95;;;;;;;4.11;63.60;101554.00;4992210;28;20070;-86
2023/02/01 05:57:15;;;;;;;2.60;1.17;;;;;;;4.11;63.37;101561.69;4991475;28;20072;-87
2023/02/01 05:59:45;;;;;;;6.38;2.67;;;;;;;4.18;62.98;101568.47;4977060;28;20094;-80
2023/02/01 06:02:11;;;;;;;2.03;1.23;;;;;;;4.05;63.08;101556.63;4979522;28;20037;-83
2023/02/01 06:04:37;;;;;;;1.70;1.45;;;;;;;4.18;62.91;101570.19;4977615;28;20144;-84
2023/02/01 06:07:03;;;;;;;1.50;1.13;;;;;;;4.20;62.87;101564.16;4974925;28;20276;-86
2023/02/01 06:09:28;;;;;;;2.25;1.27;;;;;;;4.29;62.59;101566.66;4994448;28;20018;-86
2023/02/01 06:11:54;;;;;;;2.25;2.05;;;;;;;4.34;62.24;101569.22;4983624;28;20034;-85
2023/02/01 06:14:20;;;;;;;1.15;1.02;;;;;;;4.29;61.95;101555.56;4976306;28;20053;-85
2023/02/01 06:16:46;;;;;;;42.05;2.38;;;;;;;4.27;62.04;101539.38;4989370;28;20089;-86
2023/02/01 06:19:12;;;;;;;3.80;1.95;;;;;;;4.42;61.40;101546.06;4948105;28;20539;-86
2023/02/01 06:21:37;;;;;;;3.53;2.03;;;;;;;4.38;61.34;101534.16;4979864;28;20035;-86
2023/02/01 06:24:03;;;;;;;6.13;2.58;;;;;;;4.55;61.06;101548.50;4993182;28;20429;-88
2023/02/01 06:26:29;;;;;;;3.65;2.67;;;;;;;4.50;60.96;101542.56;4961932;28;20037;-86
2023/02/01 06:28:55;;;;;;;5.85;3.70;;;;;;;4.61;60.87;101557.84;4978837;28;20386;-87
2023/02/01 06:31:20;;;;;;;5.53;4.15;;;;;;;4.58;60.98;101552.75;4979651;28;20034;-92
2023/02/01 06:33:47;;;;;;;16.30;6.22;;;;;;;4.65;60.68;101562.09;4966717;28;20105;-85
2023/02/01 06:36:12;;;;;;;7.82;5.40;;;;;;;4.70;60.89;101562.03;4986452;28;20036;-84
2023/02/01 06:38:38;;;;;;;8.48;5.80;;;;;;;4.51;60.94;101540.84;4976907;28;20030;-81
2023/02/01 06:41:04;;;;;;;8.98;5.35;;;;;;;4.74;60.63;101564.56;4969096;28;20093;-84
2023/02/01 06:43:29;;;;;;;11.77;5.55;;;;;;;4.76;60.80;101560.28;4973323;28;20492;-94
2023/02/01 06:46:06;;;;;;;6.78;4.60;;;;;;;4.71;60.20;101556.88;4983149;28;20037;-84
2023/02/01 06:48:32;;;;;;;9.63;5.97;;;;;;;4.71;61.03;101562.00;4977820;28;20022;-81
2023/02/01 06:50:57;;;;;;;7.72;3.30;;;;;;;4.63;59.94;101545.88;4946641;28;20196;-82
2023/02/01 06:53:23;;;;;;;6.35;2.75;;;;;;;4.81;59.85;101565.34;4993801;28;20041;-85
2023/02/01 06:55:58;;;;;;;7.78;5.07;;;;;;;4.65;59.97;101546.72;5009595;28;20464;-89
2023/02/01 06:58:24;;;;;;;5.63;2.83;;;;;;;4.65;60.21;101544.16;4994516;28;20054;-87
2023/02/01 07:00:50;;;;;;;5.78;2.25;;;;;;;4.70;60.05;101542.38;4993113;28;20132;-80
2023/02/01 07:03:15;;;;;;;3.47;2.35;;;;;;;4.71;59.93;101533.81;4990643;28;20140;-88
2023/02/01 07:05:41;;;;;;;3.72;2.30;;;;;;;4.68;59.92;101518.47;4991691;28;20468;-82
2023/02/01 07:08:06;;;;;;;1.35;0.98;;;;;;;4.57;59.88;101526.28;4992735;28;20058;-81
2023/02/01 07:10:34;;;;;;;4.00;2.28;;;;;;;4.72;59.74;101537.22;4992368;28;20073;-83
2023/02/01 07:12:59;;;;;;;5.55;2.50;;;;;;;4.65;60.09;101533.91;4992802;28;20057;-86
2023/02/01 07:15:25;;;;;;;5.63;3.50;;;;;;;4.54;60.31;101534.00;4985530;28;20531;-86
2023/02/01 07:17:50;;;;;;;3.17;2.40;;;;;;;4.50;60.54;101540.00;4985272;28;20037;-87
2023/02/01 07:20:16;;;;;;;4.22;3.30;;;;;;;4.72;60.61;101558.63;4976317;28;20179;-89
2023/02/01 07:22:41;;;;;;;14.70;3.15;;;;;;;4.65;60.44;101535.63;5004364;28;20035;-80
2023/02/01 07:25:07;;;;;;;4.97;3.15;;;;;;;4.83;60.95;101556.78;4992306;28;20038;-86
2023/02/01 07:27:36;;;;;;;6.95;5.13;;;;;;;4.94;60.55;101566.06;4976565;28;20081;-81
2023/02/01 07:30:03;;;;;;;9.27;4.68;;;;;;;5.03;60.46;101560.84;4992669;28;20640;-88
2023/02/01 07:32:29;;;;;;;7.53;4.10;;;;;;;5.02;60.07;101554.03;4991140;28;20573;-95
2023/02/01 07:34:54;;;;;;;9.93;4.32;;;;;;;5.25;59.59;101561.44;4976689;28;20116;-92
2023/02/01 07:37:20;;;;;;;9.15;3.70;;;;;;;5.04;59.02;101529.22;4993100;28;20537;-86
2023/02/01 07:39:45;;;;;;;15.23;4.88;;;;;;;5.29;58.80;101565.66;5009598;28;20037;-82
2023/02/01 07:42:11;;;;;;;10.43;3.33;;;;;;;5.26;58.57;101564.00;4993476;28;20064;-82
2023/02/01 07:44:36;;;;;;;5.55;2.60;;;;;;;5.20;58.44;101543.53;4992736;28;20481;-85
2023/02/01 07:47:02;;;;;;;5.28;3.80;;;;;;;5.22;58.11;101539.25;4976544;28;20116;-86
2023/02/01 07:49:27;;;;;;;5.60;2.90;;;;;;;5.48;57.33;101550.00;4992599;28;20029;-89
2023/02/01 07:51:53;;;;;;;2.28;1.90;;;;;;;5.56;57.16;101554.19;4995784;28;20046;-82
2023/02/01 07:54:18;;;;;;;7.57;2.40;;;;;;;5.77;56.90;101556.47;5029920;28;20037;-86
2023/02/01 07:56:44;;;;;;;5.22;2.97;;;;;;;5.76;55.52;101535.09;5011826;28;20029;-83
2023/02/01 07:59:10;;;;;;;2.05;1.48;;;;;;;6.04;55.44;101563.81;4988190;28;20514;-89
2023/02/01 08:01:36;;;;;;;15.50;2.60;;;;;;;6.12;54.84;101550.00;4998300;28;20048;-84
2023/02/01 08:04:02;;;;;;;13.35;2.95;;;;;;;6.29;54.28;101550.56;4991080;28;20037;-81
2023/02/01 08:06:30;;;;;;;5.25;1.98;;;;;;;6.38;53.46;101557.28;4995007;28;20029;-89
2023/02/01 08:08:56;;;;;;;1.95;1.40;;;;;;;6.31;52.21;101535.97;4996714;28;20451;-89
2023/02/01 08:11:22;;;;;;;5.80;4.30;;;;;;;6.50;51.90;101539.94;5013072;28;20095;-90
2023/02/01 08:13:47;;;;;;;7.90;3.72;;;;;;;6.71;52.32;101548.16;5014627;28;20025;-87
2023/02/01 08:16:14;;;;;;;2.20;1.70;;;;;;;6.88;50.80;101541.81;5011232;28;20510;-88
2023/02/01 08:18:39;;;;;;;11.68;4.38;;;;;;;7.00;49.76;101550.16;5009973;28;20714;-87
2023/02/01 08:21:08;;;;;;;10.90;2.50;;;;;;;7.11;48.95;101549.06;5007990;28;20104;-95
2023/02/01 08:23:34;;;;;;;7.22;3.05;;;;;;;7.17;49.20;101538.63;4996488;28;20038;-88
2023/02/01 08:26:07;;;;;;;1.15;0.93;;;;;;;7.32;48.35;101541.78;5005233;28;20064;-83
2023/02/01 08:28:32;;;;;;;;;;;;;;;7.45;47.88;101538.06;4995015;28;20437;-83
2023/02/01 08:30:58;;;;;;;3.03;1.70;;;;;;;7.29;48.19;101518.69;5010578;28;19996;-85
2023/02/01 08:33:23;;;;;;;4.03;1.90;;;;;;;7.51;48.08;101532.81;5004779;28;20038;-81
2023/02/01 08:35:48;;;;;;;3.28;2.08;;;;;;;7.55;47.60;101538.72;4992211;28;20033;-82
2023/02/01 08:38:14;;;;;;;7.85;2.25;;;;;;;7.48;47.52;101504.56;4975821;28;20041;-82
2023/02/01 08:40:41;;;;;;;4.18;1.65;;;;;;;7.67;46.61;101539.31;5003433;28;20121;-80
2023/02/01 08:43:07;;;;;;;1.70;1.42;;;;;;;7.71;47.15;101530.63;4976315;28;20124;-84
2023/02/01 08:45:33;;;;;;;2.40;1.38;;;;;;;7.80;46.63;101554.50;4960124;28;20520;-80
2023/02/01 08:47:58;;;;;;;9.10;4.55;;;;;;;7.95;46.31;101554.13;4975826;28;20029;-78
2023/02/01 08:50:24;;;;;;;4.47;3.72;;;;;;;7.95;46.00;101556.69;4991031;28;20030;-81
2023/02/01 08:52:49;;;;;;;4.40;1.90;;;;;;;7.75;45.62;101547.69;4987046;28;20042;-85
2023/02/01 08:55:15;;;;;;;5.90;1.70;;;;;;;7.75;45.39;101542.53;4991780;28;20026;-84
2023/02/01 08:57:41;;;;;;;8.88;3.65;;;;;;;7.83;45.69;101524.34;4978717;28;20413;-81
2023/02/01 09:00:08;;;;;;;3.28;1.95;;;;;;;8.06;45.26;101536.66;4979051;28;20493;-87
2023/02/01 09:02:33;;;;;;;5.28;1.90;;;;;;;8.32;45.12;101554.09;4988566;28;20454;-83
2023/02/01 09:04:59;;;;;;;5.53;1.58;;;;;;;8.24;45.00;101549.13;4982624;28;20035;-82
2023/02/01 09:07:24;;;;;;;10.00;2.13;;;;;;;8.44;44.46;101555.53;4956648;28;20030;-85
2023/02/01 09:09:50;;;;;;;4.72;2.05;;;;;;;8.37;44.66;101546.28;4971941;28;20514;-85
2023/02/01 09:12:15;;;;;;;2.15;1.25;;;;;;;8.24;44.35;101541.38;4972995;28;20089;-85
2023/02/01 09:14:41;;;;;;;2.13;1.25;;;;;;;8.21;45.21;101535.47;5000509;28;20034;-86
2023/02/01 09:17:06;;;;;;;4.53;1.98;;;;;;;8.45;45.28;101540.03;4974973;28;20513;-86
2023/02/01 09:19:32;;;;;;;2.30;1.25;;;;;;;8.50;45.53;101537.34;5004751;28;20105;-85
2023/02/01 09:21:57;;;;;;;4.63;2.22;;;;;;;8.61;44.86;101549.06;5004827;28;20023;-86
2023/02/01 09:24:23;;;;;;;3.85;1.23;;;;;;;8.50;44.82;101535.63;4991756;28;20044;-87
2023/02/01 09:26:49;;;;;;;6.15;2.72;;;;;;;8.71;45.05;101534.19;4994879;28;20508;-87
2023/02/01 09:29:14;;;;;;;6.55;2.75;;;;;;;8.82;44.18;101514.13;4994421;28;20170;-88
2023/02/01 09:31:40;;;;;;;2.33;1.55;;;;;;;9.01;43.93;101529.94;4978685;28;20061;-88
2023/02/01 09:34:06;;;;;;;1.30;1.20;;;;;;;9.04;43.66;101534.16;5001231;28;20034;-84
2023/02/01 09:36:31;;;;;;;1.15;0.45;;;;;;;8.94;44.55;101497.44;5001419;28;20141;-82
2023/02/01 09:38:58;;;;;;;1.90;1.30;;;;;;;9.17;44.09;101502.81;5008116;28;20026;-84
2023/02/01 09:41:23;;;;;;;2.05;0.75;;;;;;;9.25;44.02;101512.06;4994587;28;20541;-88
2023/02/01 09:44:08;;;;;;;2.47;1.17;;;;;;;9.22;44.33;101496.66;5012263;28;20036;-87
2023/02/01 09:46:34;;;;;;;8.93;1.88;;;;;;;9.58;42.95;101512.78;4995817;28;20498;-84
2023/02/01 09:49:11;;;;;;;2.55;1.25;;;;;;;9.35;42.89;101483.34;4992105;28;20181;-84
2023/02/01 09:51:38;;;;;;;1.40;1.02;;;;;;;9.70;43.15;101509.81;4968034;28;20137;-84
2023/02/01 09:54:13;;;;;;;2.17;1.33;;;;;;;9.75;42.56;101495.03;5010741;28;20101;-85
2023/02/01 09:56:49;;;;;;;2.03;1.08;;;;;;;9.80;41.90;101480.22;5008470;28;20386;-79
2023/02/01 09:59:31;;;;;;;4.47;2.28;;;;;;;9.82;42.72;101478.41;4958609;28;20429;-84
2023/02/01 10:01:59;;;;;;;3.13;2.53;;;;;;;9.84;41.64;101461.16;4976337;28;20334;-83
2023/02/01 10:04:24;;;;;;;2.45;1.08;;;;;;;9.74;41.62;101485.59;4998454;28;20038;-90
2023/02/01 10:07:21;;;;;;;5.00;1.92;;;;;;;9.81;41.92;101471.56;4995786;28;20037;-78
2023/02/01 10:10:13;;;;;;;2.55;1.65;;;;;;;9.91;41.37;101477.28;4998036;28;20053;-82
2023/02/01 10:13:08;;;;;;;2.22;1.45;;;;;;;9.85;41.52;101474.91;4984695;28;20042;-83
2023/02/01 10:15:54;;;;;;;3.80;1.58;;;;;;;9.92;41.54;101474.63;4996264;28;20136;-84
2023/02/01 10:18:35;;;;;;;1.90;1.45;;;;;;;9.97;41.57;101475.34;5010138;28;20532;-82
2023/02/01 10:21:22;;;;;;;2.17;1.10;;;;;;;10.03;41.65;101457.06;4998944;28;20034;-79
2023/02/01 10:24:06;;;;;;;4.15;1.13;;;;;;;10.05;41.78;101437.16;5010952;28;20088;-81
2023/02/01 10:26:37;;;;;;;4.47;2.00;;;;;;;10.22;40.62;101472.81;5011508;28;20026;-83
2023/02/01 10:29:04;;;;;;;2.05;1.13;;;;;;;10.12;41.41;101452.44;4993668;28;20018;-82
2023/02/01 10:31:31;;;;;;;3.78;2.15;;;;;;;10.19;41.16;101446.19;4992979;28;20091;-80
2023/02/01 10:34:01;;;;;;;2.45;1.63;;;;;;;10.14;41.36;101450.69;4993761;28;20026;-78
2023/02/01 10:36:37;;;;;;;4.43;1.40;;;;;;;10.31;41.24;101462.16;5009552;28;20025;-85
2023/02/01 10:39:04;;;;;;;9.40;3.05;;;;;;;10.25;40.62;101459.78;5008388;28;20032;-91
2023/02/01 10:41:37;;;;;;;4.32;2.67;;;;;;;10.38;41.13;101447.28;4979234;28;20030;-84
2023/02/01 10:44:09;;;;;;;3.10;1.50;;;;;;;10.14;40.80;101459.28;4993440;28;20124;-82
2023/02/01 10:46:35;;;;;;;;;;;;;;;9.91;40.37;101462.63;4990395;28;20033;-81
2023/02/01 10:49:02;;;;;;;13.20;1.60;;;;;;;9.51;41.58;101420.88;4995569;28;19909;-85
2023/02/01 10:51:38;;;;;;;3.35;2.00;;;;;;;9.69;41.60;101466.78;4997567;28;20050;-81
2023/02/01 10:54:08;;;;;;;3.30;1.30;;;;;;;9.61;40.85;101455.84;4977299;28;20033;-84
2023/02/01 10:56:34;;;;;;;2.00;1.65;;;;;;;9.59;41.59;101443.00;4977992;28;20026;-81
2023/02/01 10:59:05;;;;;;;1.52;1.08;;;;;;;9.61;40.67;101433.44;4969879;28;20049;-84
2023/02/01 11:01:31;;;;;;;4.10;1.08;;;;;;;9.73;41.66;101452.88;4980970;28;20564;-81
2023/02/01 11:04:03;;;;;;;2.03;1.75;;;;;;;9.88;41.32;101433.44;4973823;28;20035;-78
2023/02/01 11:06:33;;;;;;;1.63;1.52;;;;;;;10.03;40.88;101446.72;4988104;28;20036;-78
2023/02/01 11:09:08;;;;;;;1.45;1.27;;;;;;;10.10;39.97;101438.75;4989614;28;20034;-84
2023/02/01 11:11:53;;;;;;;2.30;1.13;;;;;;;10.10;40.31;101438.75;4991069;28;20026;-85
2023/02/01 11:14:24;;;;;;;1.65;1.17;;;;;;;10.25;39.80;101446.03;4979891;28;20030;-82
2023/02/01 11:16:55;;;;;;;3.90;2.47;;;;;;;10.08;40.75;101418.13;4997273;28;20041;-93
2023/02/01 11:19:21;;;;;;;16.70;7.47;;;;;;;10.31;40.73;101435.44;4963690;28;20105;-84
2023/02/01 11:21:58;;;;;;;3.70;1.95;;;;;;;10.15;39.78;101417.00;4985932;28;20129;-78
2023/02/01 11:24:35;;;;;;;1.80;1.00;;;;;;;10.20;39.45;101432.34;5003568;28;20056;-92
2023/02/01 11:27:02;;;;;;;1.83;1.60;;;;;;;10.06;38.52;101405.25;4971267;28;20065;-88
2023/02/01 11:29:38;;;;;;;3.03;1.60;;;;;;;10.19;38.26;101426.34;4967519;28;20087;-89
2023/02/01 11:32:04;;;;;;;5.20;2.47;;;;;;;10.27;38.38;101408.84;4976977;28;20409;-92
2023/02/01 11:34:42;;;;;;;0.90;0.77;;;;;;;10.39;38.93;101423.09;4986482;28;20505;-86
2023/02/01 11:37:40;;;;;;;2.95;1.50;;;;;;;10.33;37.99;101408.66;4989424;28;20571;-81
2023/02/01 11:40:29;;;;;;;2.33;1.48;;;;;;;10.14;37.41;101401.56;4976195;28;20044;-87
2023/02/01 11:43:00;;;;;;;1.63;1.33;;;;;;;10.22;37.62;101402.13;4973450;28;20038;-83
2023/02/01 11:45:29;;;;;;;4.15;1.33;;;;;;;10.35;37.71;101413.75;4947048;28;20418;-85
2023/02/01 11:47:57;;;;;;;3.88;1.98;;;;;;;10.32;37.47;101385.41;4973636;28;20129;-81
2023/02/01 11:50:28;;;;;;;4.55;1.83;;;;;;;10.35;37.12;101408.59;4992866;28;20105;-82
2023/02/01 11:53:06;;;;;;;2.03;1.17;;;;;;;10.41;37.91;101395.41;4984559;28;20057;-87
2023/02/01 11:55:48;;;;;;;9.05;3.72;;;;;;;10.40;36.90;101398.91;5017679;28;20057;-87
2023/02/01 11:58:39;;;;;;;5.30;2.20;;;;;;;10.36;37.52;101378.41;4995164;28;20440;-84
2023/02/01 12:01:37;;;;;;;2.97;0.90;;;;;;;10.38;36.88;101389.53;4995387;28;20048;-86
2023/02/01 12:04:48;;;;;;;4.15;1.77;;;;;;;10.48;36.85;101386.53;5005029;28;20034;-91
2023/02/01 12:07:25;;;;;;;0.85;0.77;;;;;;;10.26;37.25;101345.09;5014533;28;20054;-80